Time;durP1;ratioP1;P1;durP2;ratioP2;P2;SDS_P1;SDS_P2;PMS_P1;PMS_P2;Temp;Humidity;BMP_temperature;BMP_pressure;BME280_temperature;BME280_humidity;BME280_pressure;Samples;Min_cycle;Max_cycle;Signal;HPM_P1;HPM_P2
2022/12/23 00:01:49;;;;;;;15.78;9.98;;;;;;;5.99;81.05;99887.15;1728120;80;21085;-88
2022/12/23 00:04:16;;;;;;;14.30;9.90;;;;;;;5.99;81.08;99888.88;1765523;80;21531;-88
2022/12/23 00:06:43;;;;;;;23.83;14.90;;;;;;;6.01;81.21;99884.16;1739645;80;21812;-88
2022/12/23 00:09:10;;;;;;;31.77;16.82;;;;;;;6.03;81.19;99891.61;1706153;82;21693;-88
2022/12/23 00:15:03;;;;;;;68.20;33.95;;;;;;;6.05;81.15;99886.44;1728357;81;22296;-88
2022/12/23 00:16:50;;;;;;;75.20;45.67;;;;;;;6.12;81.18;99894.93;1696584;82;21058;-87
2022/12/23 00:19:17;;;;;;;39.35;24.23;;;;;;;6.16;81.11;99886.77;1692723;83;21690;-88
2022/12/23 00:21:44;;;;;;;38.78;25.88;;;;;;;6.16;80.98;99889.38;1666938;83;21089;-87
2022/12/23 00:24:11;;;;;;;43.80;26.62;;;;;;;6.15;80.91;99886.28;1755572;80;21005;-87
2022/12/23 00:26:38;;;;;;;33.60;22.05;;;;;;;6.14;80.87;99884.09;1751616;80;21519;-87
2022/12/23 00:29:04;;;;;;;35.95;23.32;;;;;;;6.12;80.85;99877.03;1743259;80;21487;-88
2022/12/23 00:31:35;;;;;;;29.45;20.55;;;;;;;6.12;80.85;99880.56;1764061;80;22400;-87
2022/12/23 00:34:01;;;;;;;44.53;28.60;;;;;;;6.13;80.85;99878.39;1739492;80;21010;-88
2022/12/23 00:36:29;;;;;;;47.62;31.55;;;;;;;6.15;80.89;99881.93;1707708;82;21074;-87
2022/12/23 00:44:27;;;;;;;33.40;20.72;;;;;;;6.11;80.76;99886.61;1706723;82;21696;-88
2022/12/23 00:46:54;;;;;;;38.78;22.77;;;;;;;6.11;80.72;99892.27;1686089;83;21043;-88
2022/12/23 00:52:09;;;;;;;64.10;37.38;;;;;;;6.04;80.65;99892.49;1705279;82;21200;-88
2022/12/23 00:54:36;;;;;;;49.55;28.80;;;;;;;6.01;80.66;99901.14;1692096;83;21129;-88
2022/12/23 00:57:03;;;;;;;50.40;29.63;;;;;;;6.00;80.71;99908.92;1677942;83;21744;-89
2022/12/23 00:59:29;;;;;;;56.33;34.18;;;;;;;6.00;80.78;99912.41;1686980;83;21069;-88
2022/12/23 01:07:27;;;;;;;41.65;25.15;;;;;;;6.06;80.79;99910.83;1750425;80;21245;-87
2022/12/23 01:09:54;;;;;;;109.87;55.17;;;;;;;6.08;80.91;99902.22;1680791;83;21741;-87
2022/12/23 01:12:21;;;;;;;111.72;58.28;;;;;;;6.11;80.93;99902.28;1707222;82;21667;-87
2022/12/23 01:14:48;;;;;;;64.87;33.18;;;;;;;6.15;80.97;99905.45;1741352;79;21013;-87
2022/12/23 01:17:15;;;;;;;56.05;30.08;;;;;;;6.17;80.93;99902.89;1684253;81;21031;-87
2022/12/23 01:19:41;;;;;;;54.40;30.32;;;;;;;6.18;80.90;99900.33;1666930;83;21104;-87
2022/12/23 01:22:08;;;;;;;61.90;33.88;;;;;;;6.21;80.89;99903.44;1669588;82;22080;-87
2022/12/23 01:24:35;;;;;;;56.80;31.80;;;;;;;6.19;80.83;99896.88;1705787;81;22078;-87
2022/12/23 01:27:04;;;;;;;44.42;25.72;;;;;;;6.20;80.85;99896.45;1702835;82;21240;-87
2022/12/23 01:29:31;;;;;;;49.90;27.02;;;;;;;6.17;80.83;99887.20;1700616;82;21037;-86
2022/12/23 01:31:58;;;;;;;43.10;25.82;;;;;;;6.15;80.86;99895.00;1701768;82;21044;-80
2022/12/23 01:34:25;;;;;;;61.45;32.55;;;;;;;6.06;80.85;99879.48;1699331;82;21744;-80
2022/12/23 01:36:51;;;;;;;81.80;42.80;;;;;;;6.11;80.90;99898.80;1717906;82;21057;-80
2022/12/23 01:39:18;;;;;;;44.83;24.87;;;;;;;6.10;80.97;99891.78;1693993;82;21389;-80
2022/12/23 01:44:59;;;;;;;54.03;28.00;;;;;;;6.08;81.01;99885.23;1693835;82;21688;-80
2022/12/23 01:48:00;;;;;;;30.35;17.52;;;;;;;6.08;81.09;99888.25;1759645;79;21836;-80
2022/12/23 01:50:39;;;;;;;71.55;37.67;;;;;;;6.07;81.13;99886.06;1745695;79;21121;-78
2022/12/23 01:53:22;;;;;;;66.17;34.85;;;;;;;6.10;81.17;99885.25;1741877;79;21082;-78
2022/12/23 01:56:03;;;;;;;72.80;37.93;;;;;;;6.09;81.16;99890.91;1735177;80;21022;-78
2022/12/23 01:58:35;;;;;;;67.45;37.03;;;;;;;6.09;81.18;99888.72;1757462;79;21125;-78
2022/12/23 02:03:48;;;;;;;80.17;44.77;;;;;;;6.09;81.14;99892.64;1724038;81;21991;-86
2022/12/23 02:09:18;;;;;;;76.28;41.92;;;;;;;6.07;81.21;99899.12;1734110;80;22018;-88
2022/12/23 02:12:40;;;;;;;55.88;33.80;;;;;;;6.07;81.17;99893.91;1767608;78;21554;-87
2022/12/23 02:18:37;;;;;;;61.15;40.30;;;;;;;6.02;81.14;99892.47;1702344;82;21071;-78
2022/12/23 02:21:28;;;;;;;;;;;;;;;5.98;81.16;99889.70;1761661;78;21049;-79
2022/12/23 02:24:18;;;;;;;48.83;31.37;;;;;;;5.95;81.14;99891.82;1736417;79;20616;-78
2022/12/23 02:27:12;;;;;;;68.12;43.28;;;;;;;5.91;81.13;99895.16;1702592;82;21105;-78
2022/12/23 02:30:06;;;;;;;105.43;63.47;;;;;;;5.87;81.22;99893.69;1708482;82;21796;-78
2022/12/23 02:32:42;;;;;;;;;;;;;;;5.84;81.31;99897.98;1697001;82;21047;-78
2022/12/23 02:35:14;;;;;;;57.38;34.30;;;;;;;5.85;81.39;99900.17;1711645;82;20674;-78
2022/12/23 02:38:16;;;;;;;47.27;28.98;;;;;;;5.85;81.41;99891.03;1652646;85;21692;-78
2022/12/23 02:41:05;;;;;;;65.67;36.00;;;;;;;5.86;81.45;99891.52;1658724;83;21166;-78
2022/12/23 02:43:53;;;;;;;73.20;38.33;;;;;;;5.91;81.63;99890.33;1634647;84;22949;-78
2022/12/23 02:46:35;;;;;;;64.35;33.25;;;;;;;5.93;81.58;99886.94;1703837;82;21104;-79
2022/12/23 02:49:16;;;;;;;65.45;35.70;;;;;;;5.96;81.59;99889.66;1701324;81;21132;-79
2022/12/23 02:51:47;;;;;;;79.17;37.58;;;;;;;6.00;81.58;99890.64;1699488;81;21672;-79
2022/12/23 02:54:17;;;;;;;51.00;26.50;;;;;;;6.02;81.53;99885.94;1702519;82;21155;-79
2022/12/23 02:56:46;;;;;;;52.98;25.77;;;;;;;6.06;81.58;99884.27;1702925;82;21552;-79
2022/12/23 02:59:16;;;;;;;69.92;33.05;;;;;;;6.09;81.55;99889.60;1717704;81;21043;-78
2022/12/23 03:01:43;;;;;;;72.67;32.20;;;;;;;6.11;81.50;99898.80;1698638;82;21086;-79
2022/12/23 03:04:11;;;;;;;64.12;28.77;;;;;;;6.15;81.53;99897.61;1716941;82;22190;-86
2022/12/23 03:06:40;;;;;;;59.95;26.12;;;;;;;6.18;81.50;99895.53;1713305;82;21078;-87
2022/12/23 03:09:07;;;;;;;62.78;27.80;;;;;;;6.22;81.53;99897.38;1666178;85;21764;-86
2022/12/23 03:11:48;;;;;;;75.97;33.40;;;;;;;6.26;81.52;99894.44;1707449;82;21106;-88
2022/12/23 03:14:35;;;;;;;62.13;29.00;;;;;;;6.30;81.47;99891.06;1703196;82;21133;-87
2022/12/23 03:17:40;;;;;;;64.42;30.75;;;;;;;6.31;81.37;99889.80;1690168;82;21069;-87
2022/12/23 03:20:36;;;;;;;44.85;21.57;;;;;;;6.31;81.28;99887.19;1719516;81;21058;-87
2022/12/23 03:23:35;;;;;;;43.33;21.65;;;;;;;6.33;81.29;99887.24;1702247;82;21825;-87
2022/12/23 03:26:10;;;;;;;42.23;20.72;;;;;;;6.31;81.26;99880.66;1698680;83;21118;-87
2022/12/23 03:28:44;;;;;;;59.18;28.23;;;;;;;6.31;81.23;99884.58;1698716;84;21074;-87
2022/12/23 03:31:14;;;;;;;43.55;23.30;;;;;;;6.29;81.21;99888.88;1702543;82;21062;-87
2022/12/23 03:33:44;;;;;;;40.28;22.93;;;;;;;6.27;81.20;99889.66;1699169;84;21074;-87
2022/12/23 03:36:15;;;;;;;46.45;25.17;;;;;;;6.24;81.21;99889.16;1687755;82;21767;-87
2022/12/23 03:38:45;;;;;;;34.45;19.65;;;;;;;6.21;81.13;99889.06;1706680;82;21036;-87
2022/12/23 03:41:16;;;;;;;38.00;20.52;;;;;;;6.15;81.15;99884.55;1684356;82;22144;-87
2022/12/23 03:43:50;;;;;;;37.48;19.98;;;;;;;6.09;81.11;99890.91;1686126;83;21633;-87
2022/12/23 03:46:23;;;;;;;34.67;18.30;;;;;;;6.02;81.12;99892.47;1684355;83;21081;-87
2022/12/23 03:48:55;;;;;;;37.20;19.87;;;;;;;5.96;81.15;99896.62;1643739;84;21719;-88
2022/12/23 03:51:26;;;;;;;34.92;17.82;;;;;;;5.89;81.21;99890.28;1683419;83;21336;-87
2022/12/23 03:54:02;;;;;;;25.27;14.43;;;;;;;5.87;81.30;99886.73;1680010;83;21081;-87
2022/12/23 03:56:33;;;;;;;37.58;21.37;;;;;;;5.83;81.36;99896.63;1661842;83;21110;-87
2022/12/23 03:59:08;;;;;;;45.00;23.77;;;;;;;5.80;81.48;99895.22;1609777;87;21182;-88
2022/12/23 04:01:52;;;;;;;54.45;28.30;;;;;;;5.78;81.56;99898.20;1689850;82;22056;-87
2022/12/23 04:04:30;;;;;;;48.75;24.15;;;;;;;5.77;81.65;99897.33;1655146;85;22030;-88
2022/12/23 04:07:08;;;;;;;60.92;30.05;;;;;;;5.79;81.76;99894.77;1683546;82;21110;-87
2022/12/23 04:09:35;;;;;;;59.20;30.80;;;;;;;5.80;81.83;99893.52;1700700;82;21121;-86
2022/12/23 04:12:02;;;;;;;26.73;16.37;;;;;;;5.82;81.89;99885.73;1701663;81;21082;-87
2022/12/23 04:14:29;;;;;;;84.13;42.17;;;;;;;5.81;81.82;99877.42;1703078;82;22551;-87
2022/12/23 04:16:58;;;;;;;93.70;45.20;;;;;;;5.79;81.83;99877.80;1698767;84;22193;-87
2022/12/23 04:19:24;;;;;;;58.28;31.60;;;;;;;5.81;81.92;99877.42;1713838;82;21050;-87
2022/12/23 04:21:53;;;;;;;41.45;23.52;;;;;;;5.77;81.84;99873.83;1702662;82;21468;-87
2022/12/23 04:24:20;;;;;;;35.23;20.12;;;;;;;5.75;81.84;99872.89;1710059;79;21065;-87
2022/12/23 04:26:47;;;;;;;33.60;20.35;;;;;;;5.73;81.85;99873.27;1766388;80;22636;-87
2022/12/23 04:29:14;;;;;;;27.35;17.62;;;;;;;5.69;81.85;99873.12;1739812;80;21090;-87
2022/12/23 04:31:41;;;;;;;30.48;19.75;;;;;;;5.65;81.87;99887.41;1756585;80;21146;-87
2022/12/23 04:34:08;;;;;;;32.28;18.32;;;;;;;5.63;81.86;99890.39;1735497;80;21475;-86
2022/12/23 04:36:34;;;;;;;52.80;27.62;;;;;;;5.63;81.99;99889.48;1739449;80;20975;-87
2022/12/23 04:39:01;;;;;;;36.15;22.13;;;;;;;5.65;82.07;99890.02;1703459;82;21749;-87
2022/12/23 04:41:28;;;;;;;35.08;22.67;;;;;;;5.70;82.13;99887.95;1696510;83;21132;-87
2022/12/23 04:43:55;;;;;;;26.60;18.67;;;;;;;5.73;82.17;99893.29;1701028;82;21586;-86
2022/12/23 04:46:21;;;;;;;31.85;18.32;;;;;;;5.76;82.20;99889.44;1717418;82;21557;-87
2022/12/23 04:48:48;;;;;;;36.25;21.80;;;;;;;5.77;82.10;99888.19;1719546;82;21629;-88
2022/12/23 04:51:16;;;;;;;31.65;21.45;;;;;;;5.77;82.08;99893.41;1714212;82;21207;-87
2022/12/23 04:53:44;;;;;;;27.95;17.73;;;;;;;5.80;82.11;99886.98;1710553;82;21072;-87
2022/12/23 04:56:10;;;;;;;29.70;18.77;;;;;;;5.80;82.00;99888.69;1716919;82;21139;-88
2022/12/23 04:58:37;;;;;;;39.80;22.30;;;;;;;5.78;81.96;99895.59;1708501;82;21049;-88
2022/12/23 05:01:10;;;;;;;30.50;20.35;;;;;;;5.76;81.89;99892.05;1706757;82;21476;-88
2022/12/23 05:03:37;;;;;;;36.50;20.45;;;;;;;5.72;81.86;99893.69;1711654;82;21712;-88
2022/12/23 05:06:05;;;;;;;41.05;24.25;;;;;;;5.70;81.83;99887.95;1707216;82;21040;-88
2022/12/23 05:08:31;;;;;;;46.63;24.70;;;;;;;5.67;81.96;99885.24;1715450;82;21029;-87
2022/12/23 05:10:58;;;;;;;54.20;27.10;;;;;;;5.70;82.01;99890.14;1718265;82;21201;-87
2022/12/23 05:13:25;;;;;;;41.83;23.22;;;;;;;5.70;82.03;99891.45;1706797;82;21075;-87
2022/12/23 05:15:53;;;;;;;35.52;19.82;;;;;;;5.72;82.00;99898.03;1717162;82;21781;-87
2022/12/23 05:18:20;;;;;;;64.07;33.05;;;;;;;5.68;81.88;99894.44;1708815;82;21048;-87
2022/12/23 05:20:47;;;;;;;57.25;30.70;;;;;;;5.65;81.85;99895.67;1718451;82;21636;-87
2022/12/23 05:23:14;;;;;;;65.45;32.85;;;;;;;5.60;81.86;99896.81;1726758;81;21068;-79
2022/12/23 05:25:41;;;;;;;47.53;26.82;;;;;;;5.59;81.88;99888.53;1692977;82;21723;-79
2022/12/23 05:28:08;;;;;;;60.65;32.33;;;;;;;5.55;81.91;99887.94;1700122;82;22576;-79
2022/12/23 05:30:35;;;;;;;50.95;26.80;;;;;;;5.52;81.88;99894.39;1720155;81;21042;-79
2022/12/23 05:33:01;;;;;;;59.73;31.50;;;;;;;5.48;81.87;99897.75;1715049;81;21572;-79
2022/12/23 05:35:28;;;;;;;58.30;30.45;;;;;;;5.45;81.93;99907.66;1711470;81;21641;-79
2022/12/23 05:37:56;;;;;;;53.38;29.15;;;;;;;5.45;82.02;99906.77;1683854;82;21843;-79
2022/12/23 05:40:23;;;;;;;71.90;34.45;;;;;;;5.44;82.13;99908.91;1689151;84;21762;-80
2022/12/23 05:42:50;;;;;;;61.08;31.75;;;;;;;5.42;82.11;99901.45;1708422;81;20994;-80
2022/12/23 05:45:17;;;;;;;74.10;34.95;;;;;;;5.43;82.26;99896.28;1727478;81;21000;-80
2022/12/23 05:47:44;;;;;;;77.42;34.75;;;;;;;5.47;82.31;99898.57;1717592;81;21042;-80
2022/12/23 05:50:11;;;;;;;62.40;29.63;;;;;;;5.49;82.32;99892.09;1710749;81;21820;-80
2022/12/23 05:52:45;;;;;;;106.65;46.83;;;;;;;5.51;82.30;99891.30;1693197;81;22821;-81
2022/12/23 05:55:24;;;;;;;65.67;31.95;;;;;;;5.53;82.34;99900.48;1714016;81;21013;-81
2022/12/23 05:57:56;;;;;;;54.40;26.80;;;;;;;5.56;82.49;99906.70;1681348;83;21479;-80
2022/12/23 06:00:22;;;;;;;66.00;31.30;;;;;;;5.61;82.43;99899.91;1711308;81;21613;-87
2022/12/23 06:02:49;;;;;;;61.88;29.85;;;;;;;5.64;82.45;99895.19;1714465;81;20968;-80
2022/12/23 06:05:16;;;;;;;75.95;34.90;;;;;;;5.56;82.27;99880.59;1678765;83;21824;-80
2022/12/23 06:07:43;;;;;;;77.53;35.52;;;;;;;5.57;82.15;99888.88;1719618;81;21443;-80
2022/12/23 06:10:10;;;;;;;81.37;35.98;;;;;;;5.52;82.12;99888.27;1724422;81;21452;-80
2022/12/23 06:12:37;;;;;;;96.97;43.38;;;;;;;5.48;82.13;99890.31;1673702;83;21573;-88
2022/12/23 06:15:05;;;;;;;104.65;43.70;;;;;;;5.44;82.15;99899.77;1703078;83;21420;-87
2022/12/23 06:17:32;;;;;;;120.87;58.08;;;;;;;5.43;82.25;99903.23;1662645;84;21774;-87
2022/12/23 06:20:04;;;;;;;75.90;49.10;;;;;;;5.43;82.31;99911.06;1722453;81;21812;-88
2022/12/23 06:22:31;;;;;;;83.35;49.42;;;;;;;5.41;82.34;99914.05;1728362;81;21061;-88
2022/12/23 06:24:58;;;;;;;85.85;50.83;;;;;;;5.43;82.38;99913.67;1723101;81;21049;-87
2022/12/23 06:27:25;;;;;;;78.20;45.00;;;;;;;5.43;82.46;99906.72;1712927;82;21114;-89
2022/12/23 06:29:53;;;;;;;80.10;50.95;;;;;;;5.42;82.37;99909.27;1714971;82;21938;-89
2022/12/23 06:32:19;;;;;;;55.43;37.20;;;;;;;5.40;82.35;99909.22;1697402;82;21067;-87
2022/12/23 06:34:48;;;;;;;65.83;44.48;;;;;;;5.39;82.42;99910.08;1700172;82;21067;-89
2022/12/23 06:37:15;;;;;;;57.10;36.20;;;;;;;5.39;82.40;99917.91;1702930;82;21098;-88
2022/12/23 06:39:41;;;;;;;67.22;42.98;;;;;;;5.37;82.40;99922.19;1715943;82;21086;-88
2022/12/23 06:42:08;;;;;;;51.00;31.60;;;;;;;5.37;82.45;99923.92;1704587;83;21109;-87
2022/12/23 06:44:35;;;;;;;40.95;24.70;;;;;;;5.40;82.54;99926.18;1675927;83;21370;-88
2022/12/23 06:47:02;;;;;;;61.33;37.95;;;;;;;5.41;82.50;99927.09;1694460;83;21052;-89
2022/12/23 06:49:29;;;;;;;72.42;45.38;;;;;;;5.41;82.42;99937.11;1716715;82;21104;-89
2022/12/23 06:51:55;;;;;;;55.17;34.15;;;;;;;5.38;82.39;99928.28;1712720;82;21062;-90
2022/12/23 06:54:22;;;;;;;58.38;35.63;;;;;;;5.37;82.41;99923.92;1725075;82;21313;-92
2022/12/23 06:56:50;;;;;;;38.38;23.57;;;;;;;5.34;82.38;99927.73;1711384;82;21075;-92
2022/12/23 06:59:18;;;;;;;33.70;19.15;;;;;;;5.32;82.46;99925.06;1742924;81;21420;-91
2022/12/23 07:01:46;;;;;;;35.03;24.00;;;;;;;5.32;82.54;99932.89;1742322;80;21030;-91
2022/12/23 07:04:13;;;;;;;32.17;20.82;;;;;;;5.30;82.55;99934.56;1750017;79;21078;-90
2022/12/23 07:06:39;;;;;;;33.78;21.73;;;;;;;5.32;82.66;99936.80;1739532;80;21771;-89
2022/12/23 07:09:06;;;;;;;41.63;26.57;;;;;;;5.33;82.63;99950.34;1712288;81;21611;-90
2022/12/23 07:11:33;;;;;;;26.40;17.82;;;;;;;5.34;82.74;99959.92;1762561;80;21078;-89
2022/12/23 07:14:00;;;;;;;30.48;18.30;;;;;;;5.36;82.83;99967.38;1748343;80;21254;-90
2022/12/23 07:16:27;;;;;;;28.70;17.85;;;;;;;5.39;82.86;99966.61;1742129;81;21065;-90
2022/12/23 07:18:54;;;;;;;28.07;16.17;;;;;;;5.40;82.87;99973.16;1762460;80;21805;-90
2022/12/23 07:21:23;;;;;;;22.22;14.65;;;;;;;5.43;82.91;99965.45;1734066;80;21029;-93
2022/12/23 07:23:49;;;;;;;26.23;16.75;;;;;;;5.45;82.83;99965.50;1758394;80;21133;-91
2022/12/23 07:26:16;;;;;;;24.27;15.03;;;;;;;5.44;82.84;99956.80;1745766;80;21570;-89
2022/12/23 07:28:46;;;;;;;27.90;17.90;;;;;;;5.47;82.86;99958.60;1727401;81;22164;-89
2022/12/23 07:31:14;;;;;;;28.42;17.70;;;;;;;5.48;82.81;99957.78;1720510;81;21924;-87
2022/12/23 07:33:42;;;;;;;27.85;19.10;;;;;;;5.49;82.82;99954.75;1671500;83;21261;-90
2022/12/23 07:36:09;;;;;;;38.28;24.90;;;;;;;5.50;82.88;99953.50;1684717;82;21097;-88
2022/12/23 07:38:35;;;;;;;55.43;35.52;;;;;;;5.55;82.94;99949.28;1696629;83;21090;-87
2022/12/23 07:41:02;;;;;;;34.53;24.60;;;;;;;5.61;82.92;99948.59;1684324;82;21428;-85
2022/12/23 07:43:29;;;;;;;38.05;25.95;;;;;;;5.64;82.95;99957.41;1697577;83;21778;-86
2022/12/23 07:45:56;;;;;;;37.93;22.13;;;;;;;5.69;82.86;99954.97;1707412;81;21126;-89
2022/12/23 07:48:22;;;;;;;37.73;22.30;;;;;;;5.73;82.86;99960.75;1708994;80;21077;-87
2022/12/23 07:50:50;;;;;;;36.38;22.87;;;;;;;5.80;82.90;99957.89;1748126;80;21609;-89
2022/12/23 07:53:17;;;;;;;47.75;32.98;;;;;;;5.85;82.81;99956.32;1728280;80;21159;-89
2022/12/23 07:55:43;;;;;;;40.08;24.32;;;;;;;5.88;82.71;99946.41;1738252;80;21747;-85
2022/12/23 07:58:10;;;;;;;29.55;19.30;;;;;;;5.89;82.55;99949.47;1731788;80;21688;-86
2022/12/23 08:00:37;;;;;;;34.65;20.68;;;;;;;5.90;82.50;99939.50;1731960;80;21025;-88
2022/12/23 08:03:04;;;;;;;34.18;21.55;;;;;;;5.92;82.45;99946.53;1756177;80;21077;-86
2022/12/23 08:05:31;;;;;;;33.50;21.93;;;;;;;5.93;82.41;99956.55;1695876;80;21100;-85
2022/12/23 08:07:58;;;;;;;33.67;22.40;;;;;;;5.95;82.39;99953.20;1722186;79;21782;-86
2022/12/23 08:10:25;;;;;;;38.40;26.17;;;;;;;5.97;82.35;99959.36;1688106;83;21097;-90
2022/12/23 08:12:51;;;;;;;39.40;24.37;;;;;;;5.98;82.32;99961.55;1722026;81;21037;-88
2022/12/23 08:15:18;;;;;;;34.03;23.00;;;;;;;6.00;82.35;99960.73;1687852;83;21474;-87
2022/12/23 08:17:45;;;;;;;31.17;23.30;;;;;;;6.04;82.36;99955.19;1711850;82;21077;-88
2022/12/23 08:20:12;;;;;;;32.73;21.48;;;;;;;6.07;82.26;99955.73;1697681;82;21763;-88
2022/12/23 08:22:42;;;;;;;34.43;23.92;;;;;;;6.11;82.30;99954.97;1753374;80;21029;-86
2022/12/23 08:25:09;;;;;;;42.20;27.48;;;;;;;6.15;82.27;99959.44;1723381;81;21434;-90
2022/12/23 08:27:36;;;;;;;38.55;23.83;;;;;;;6.15;82.14;99947.25;1751870;79;21038;-91
2022/12/23 08:30:04;;;;;;;29.30;21.97;;;;;;;6.16;82.10;99958.19;1707058;82;21506;-83
2022/12/23 08:32:31;;;;;;;31.15;24.25;;;;;;;6.18;82.07;99949.97;1756452;79;21766;-84
2022/12/23 08:35:08;;;;;;;35.20;24.87;;;;;;;6.22;82.08;99958.36;1763508;80;21071;-83
2022/12/23 08:37:34;;;;;;;29.20;21.02;;;;;;;6.27;82.06;99963.74;1759647;80;21035;-81
2022/12/23 08:40:01;;;;;;;23.47;17.52;;;;;;;6.32;82.00;99951.67;1761830;79;21034;-83
2022/12/23 08:42:29;;;;;;;24.37;17.00;;;;;;;6.33;81.79;99946.05;1718702;82;21516;-84
2022/12/23 08:44:56;;;;;;;30.85;19.65;;;;;;;6.30;81.65;99952.05;1750718;79;21772;-83
2022/12/23 08:47:24;;;;;;;34.63;21.95;;;;;;;6.29;81.60;99961.15;1705159;82;21076;-82
2022/12/23 08:49:51;;;;;;;31.97;19.62;;;;;;;6.27;81.58;99965.45;1664528;83;21073;-84
2022/12/23 08:52:18;;;;;;;28.85;21.27;;;;;;;6.27;81.61;99968.97;1712008;82;21041;-83
2022/12/23 08:54:45;;;;;;;31.23;22.67;;;;;;;6.30;81.69;99970.34;1704466;83;21085;-84
2022/12/23 08:57:12;;;;;;;35.58;26.10;;;;;;;6.32;81.63;99972.58;1715867;82;21770;-86
2022/12/23 08:59:39;;;;;;;28.73;20.35;;;;;;;6.34;81.65;99968.28;1708108;82;21033;-83
2022/12/23 09:02:06;;;;;;;50.67;33.80;;;;;;;6.37;81.56;99960.55;1704317;82;21053;-82
2022/12/23 09:04:33;;;;;;;29.63;24.70;;;;;;;6.39;81.54;99949.70;1711537;82;21295;-85
2022/12/23 09:06:59;;;;;;;35.85;27.42;;;;;;;6.45;81.53;99949.42;1707498;82;21095;-80
2022/12/23 09:09:26;;;;;;;29.32;19.40;;;;;;;6.48;81.43;99957.38;1721768;81;21773;-79
2022/12/23 09:11:53;;;;;;;32.42;17.52;;;;;;;6.50;81.35;99950.45;1739011;80;22176;-80
2022/12/23 09:14:20;;;;;;;20.12;14.28;;;;;;;6.53;81.33;99957.05;1713058;81;20963;-82
2022/12/23 09:16:51;;;;;;;23.90;15.60;;;;;;;6.57;81.31;99957.64;1709121;80;21042;-83
2022/12/23 09:19:18;;;;;;;23.98;15.70;;;;;;;6.58;81.20;99960.70;1711540;81;21033;-81
2022/12/23 09:21:49;;;;;;;31.57;19.40;;;;;;;6.64;81.33;99958.67;1712172;80;21735;-84
2022/12/23 09:24:16;;;;;;;27.87;18.92;;;;;;;6.70;81.17;99959.75;1693522;83;20988;-81
2022/12/23 09:26:43;;;;;;;21.55;15.32;;;;;;;6.72;81.04;99957.15;1686113;83;21113;-84
2022/12/23 09:29:10;;;;;;;23.22;15.32;;;;;;;6.74;80.93;99963.34;1678875;83;22008;-81
2022/12/23 09:31:37;;;;;;;25.23;15.95;;;;;;;6.74;80.87;99957.67;1689811;83;21058;-84
2022/12/23 09:34:04;;;;;;;22.50;15.50;;;;;;;6.72;80.77;99951.52;1702822;83;21753;-90
2022/12/23 09:36:30;;;;;;;22.42;14.93;;;;;;;6.57;80.64;99926.26;1672974;85;21134;-88
2022/12/23 09:38:58;;;;;;;21.48;14.33;;;;;;;6.70;80.64;99944.45;1713094;82;21025;-89
2022/12/23 09:41:51;;;;;;;27.60;17.05;;;;;;;6.54;80.62;99917.89;1760797;79;21081;-90
2022/12/23 09:44:43;;;;;;;30.57;18.67;;;;;;;6.73;80.68;99942.81;1721699;80;21038;-88
2022/12/23 09:47:15;;;;;;;24.12;17.12;;;;;;;6.79;80.72;99944.70;1700688;82;21776;-89
2022/12/23 09:49:57;;;;;;;27.75;16.73;;;;;;;6.84;80.65;99942.23;1711584;82;21087;-88
2022/12/23 09:52:51;;;;;;;25.85;16.32;;;;;;;6.87;80.69;99938.38;1729800;82;21066;-89
2022/12/23 09:55:18;;;;;;;26.23;16.93;;;;;;;6.94;80.69;99940.31;1754114;80;21059;-88
2022/12/23 09:58:03;;;;;;;25.88;15.53;;;;;;;6.99;80.56;99943.95;1721856;82;21128;-86
2022/12/23 10:00:38;;;;;;;27.52;16.70;;;;;;;7.05;80.58;99938.86;1760308;80;21772;-88
2022/12/23 10:03:25;;;;;;;47.40;27.13;;;;;;;7.10;80.49;99933.34;1759313;80;21069;-88
2022/12/23 10:06:25;;;;;;;59.38;36.88;;;;;;;7.12;80.33;99930.33;1636697;86;21245;-88
2022/12/23 10:08:56;;;;;;;26.17;16.55;;;;;;;7.15;80.31;99933.44;1744539;80;21076;-88
2022/12/23 10:11:29;;;;;;;23.62;15.58;;;;;;;7.19;80.22;99939.23;1733263;80;21081;-82
2022/12/23 10:14:05;;;;;;;24.05;15.05;;;;;;;7.22;80.06;99934.06;1710639;81;21986;-83
2022/12/23 10:16:46;;;;;;;22.00;14.15;;;;;;;7.23;79.97;99931.92;1738442;80;21041;-82
2022/12/23 10:19:33;;;;;;;23.15;15.10;;;;;;;7.27;79.93;99929.84;1706200;82;21728;-82
2022/12/23 10:22:21;;;;;;;25.10;15.50;;;;;;;7.29;79.83;99929.45;1680535;83;21105;-84
2022/12/23 10:24:48;;;;;;;39.10;25.20;;;;;;;7.34;79.76;99937.44;1738586;80;21075;-89
2022/12/23 10:27:37;;;;;;;41.83;27.67;;;;;;;7.35;79.64;99930.91;1738442;80;21750;-83
2022/12/23 10:30:20;;;;;;;42.70;27.95;;;;;;;7.37;79.58;99934.44;1765402;78;21086;-94
2022/12/23 10:33:08;;;;;;;66.72;42.40;;;;;;;7.39;79.50;99934.48;1746456;80;21958;-83
2022/12/23 10:35:56;;;;;;;36.48;26.02;;;;;;;7.46;79.59;99939.03;1749440;80;21342;-83
2022/12/23 10:39:00;;;;;;;31.20;20.50;;;;;;;7.55;79.93;99936.64;1737305;79;21077;-88
2022/12/23 10:41:53;;;;;;;27.05;18.20;;;;;;;7.67;80.00;99932.53;1729345;79;21250;-90
2022/12/23 10:45:05;;;;;;;22.58;16.37;;;;;;;7.72;79.38;99934.84;1743871;80;21022;-93
2022/12/23 10:47:54;;;;;;;26.07;18.62;;;;;;;7.70;79.21;99935.24;1698682;82;21083;-90
2022/12/23 10:51:00;;;;;;;28.83;20.77;;;;;;;7.76;79.25;99934.94;1668380;84;21549;-93
2022/12/23 10:53:44;;;;;;;26.57;18.20;;;;;;;7.83;79.08;99928.12;1654053;83;21122;-89
2022/12/23 10:56:11;;;;;;;;;;;;;;;7.83;78.88;99932.45;1712756;81;22618;-89
2022/12/23 10:58:41;;;;;;;27.40;18.05;;;;;;;7.81;78.64;99932.44;1731269;81;20969;-89
2022/12/23 11:01:11;;;;;;;24.63;16.35;;;;;;;7.73;78.46;99936.59;1703405;82;21078;-89
2022/12/23 11:04:14;;;;;;;30.27;20.75;;;;;;;7.70;78.49;99937.86;1740864;80;21672;-91
2022/12/23 11:06:52;;;;;;;26.82;19.73;;;;;;;7.67;78.49;99941.70;1665459;82;21623;-90
2022/12/23 11:09:22;;;;;;;27.13;20.90;;;;;;;7.68;78.54;99945.67;1670211;83;21836;-90
2022/12/23 11:12:05;;;;;;;28.15;18.20;;;;;;;7.70;78.55;99941.36;1667126;83;21208;-90
2022/12/23 11:14:52;;;;;;;27.23;18.03;;;;;;;7.70;78.46;99933.50;1668563;85;22017;-90
2022/12/23 11:17:27;;;;;;;25.77;17.82;;;;;;;7.71;78.29;99930.44;1651253;85;21763;-91
2022/12/23 11:20:16;;;;;;;25.00;16.32;;;;;;;7.74;78.43;99931.84;1664461;85;21095;-91
2022/12/23 11:22:53;;;;;;;25.55;17.20;;;;;;;7.77;78.33;99939.74;1666253;82;21710;-91
2022/12/23 11:25:39;;;;;;;22.05;14.87;;;;;;;7.77;78.24;99945.89;1670548;84;21092;-91
2022/12/23 11:28:11;;;;;;;27.00;17.07;;;;;;;7.75;78.15;99951.92;1629702;87;21102;-90
2022/12/23 11:31:10;;;;;;;25.37;16.77;;;;;;;7.74;78.19;99948.86;1691620;84;21236;-90
2022/12/23 11:33:42;;;;;;;25.65;16.48;;;;;;;7.72;78.14;99947.95;1683487;84;21496;-91
2022/12/23 11:36:16;;;;;;;24.85;17.73;;;;;;;7.70;78.06;99951.84;1693247;84;21716;-91
2022/12/23 11:38:52;;;;;;;30.88;19.15;;;;;;;7.72;78.17;99954.50;1657226;84;21078;-91
2022/12/23 11:41:40;;;;;;;30.55;19.23;;;;;;;7.72;78.05;99948.83;1665827;85;21090;-90
2022/12/23 11:44:27;;;;;;;27.40;18.17;;;;;;;7.72;78.02;99957.12;1700593;83;21089;-91
2022/12/23 11:46:54;;;;;;;35.95;19.10;;;;;;;7.71;78.04;99955.33;1701501;83;21477;-91
2022/12/23 11:49:31;;;;;;;39.98;21.00;;;;;;;7.72;77.97;99953.19;1666610;84;21751;-91
2022/12/23 11:52:13;;;;;;;190.88;110.40;;;;;;;7.72;78.05;99951.88;1646158;85;21080;-90
2022/12/23 11:54:40;;;;;;;55.75;37.48;;;;;;;7.73;78.00;99956.25;1677033;84;21569;-90
2022/12/23 11:57:12;;;;;;;64.35;41.18;;;;;;;7.71;77.92;99948.78;1657649;84;21083;-91
2022/12/23 11:59:41;;;;;;;72.22;47.17;;;;;;;7.69;77.98;99955.72;1672314;84;21685;-92
2022/12/23 12:02:37;;;;;;;153.25;84.03;;;;;;;7.68;77.96;99951.34;1682401;84;22511;-90
2022/12/23 12:05:21;;;;;;;98.80;59.70;;;;;;;7.67;77.96;99948.25;1685388;83;21630;-90
2022/12/23 12:07:48;;;;;;;67.32;43.10;;;;;;;7.64;77.83;99942.53;1683782;84;21447;-90
2022/12/23 12:10:21;;;;;;;40.60;26.33;;;;;;;7.63;77.91;99945.98;1702369;83;21074;-91
2022/12/23 12:12:55;;;;;;;35.33;22.35;;;;;;;7.59;77.91;99946.33;1699935;81;21067;-91
2022/12/23 12:15:48;;;;;;;31.12;19.02;;;;;;;7.57;77.83;99945.41;1723595;81;21422;-91
2022/12/23 12:18:21;;;;;;;29.77;19.57;;;;;;;7.51;77.83;99942.66;1712515;81;21180;-90
2022/12/23 12:20:54;;;;;;;27.90;20.02;;;;;;;7.52;77.96;99944.41;1711596;82;21559;-90